createdAt,value
2023-04-18T00:00:48.770Z,75.50
2023-04-18T00:03:55.411Z,76.18
2023-04-18T00:06:59.016Z,75.91
2023-04-18T00:10:03.474Z,75.84
2023-04-18T00:13:07.527Z,75.40
2023-04-18T00:16:13.314Z,75.74
2023-04-18T00:19:18.900Z,75.98
2023-04-18T00:22:22.891Z,75.92
2023-04-18T00:25:26.680Z,75.99
2023-04-18T00:28:30.375Z,76.05
2023-04-18T00:31:33.970Z,76.02
2023-04-18T00:34:40.442Z,75.41
2023-04-18T00:37:43.931Z,76.20
2023-04-18T00:40:47.711Z,76.05
2023-04-18T00:43:51.425Z,75.95
2023-04-18T00:46:55.161Z,75.97
2023-04-18T00:50:00.761Z,76.24
2023-04-18T00:53:05.110Z,76.16
2023-04-18T00:56:08.920Z,76.14
2023-04-18T00:59:13.197Z,76.39
2023-04-18T01:02:17.404Z,76.19
2023-04-18T01:05:24.668Z,76.57
2023-04-18T01:08:28.915Z,76.13
2023-04-18T01:11:36.029Z,75.97
2023-04-18T01:14:43.421Z,76.25
2023-04-18T01:17:47.411Z,75.89
2023-04-18T01:20:54.977Z,76.73
2023-04-18T01:24:07.742Z,76.57
2023-04-18T01:27:13.593Z,76.31
2023-04-18T01:30:17.345Z,76.33
2023-04-18T01:33:20.963Z,76.39
2023-04-18T01:36:24.696Z,76.52
2023-04-18T01:39:30.144Z,76.45
2023-04-18T01:42:33.901Z,76.77
2023-04-18T01:45:37.640Z,76.45
2023-04-18T01:48:41.354Z,76.60
2023-04-18T01:51:45.078Z,76.83
2023-04-18T01:54:50.166Z,76.83
2023-04-18T01:57:56.202Z,76.86
2023-04-18T02:01:00.015Z,76.90
2023-04-18T02:04:03.865Z,76.92
2023-04-18T02:07:07.633Z,76.92
2023-04-18T02:10:13.964Z,76.81
2023-04-18T02:13:17.669Z,77.05
2023-04-18T02:16:21.723Z,77.15
2023-04-18T02:19:25.739Z,76.98
2023-04-18T02:22:29.366Z,77.35
2023-04-18T02:25:34.613Z,77.28
2023-04-18T02:28:39.200Z,77.05
2023-04-18T02:31:43.359Z,77.54
2023-04-18T02:34:47.423Z,76.92
2023-04-18T02:37:53.505Z,77.46
2023-04-18T02:40:58.318Z,76.96
2023-04-18T02:44:03.902Z,77.16
2023-04-18T02:47:07.828Z,77.31
2023-04-18T02:50:16.230Z,77.27
2023-04-18T02:53:19.903Z,77.83
2023-04-18T02:56:31.054Z,77.25
2023-04-18T02:59:54.938Z,77.55
2023-04-18T03:02:58.659Z,77.88
2023-04-18T03:06:16.768Z,77.79
2023-04-18T03:09:20.535Z,77.55
2023-04-18T03:12:31.472Z,77.54
2023-04-18T03:15:35.424Z,77.79
2023-04-18T03:18:39.603Z,77.39
2023-04-18T03:21:43.439Z,77.38
2023-04-18T03:24:48.732Z,77.82
2023-04-18T03:27:55.318Z,77.71
2023-04-18T03:31:00.943Z,77.58
2023-04-18T03:34:04.999Z,77.72
2023-04-18T03:37:09.003Z,77.75
2023-04-18T03:40:19.028Z,77.38
2023-04-18T03:43:25.840Z,77.51
2023-04-18T03:46:29.936Z,78.11
2023-04-18T03:49:35.038Z,78.02
2023-04-18T03:52:40.561Z,77.80
2023-04-18T03:55:44.878Z,77.80
2023-04-18T03:58:53.459Z,78.31
2023-04-18T04:01:59.053Z,77.62
2023-04-18T04:05:03.598Z,77.72
2023-04-18T04:08:07.680Z,78.50
2023-04-18T04:11:11.867Z,78.08
2023-04-18T04:14:17.950Z,77.98
2023-04-18T04:17:23.206Z,78.23
2023-04-18T04:20:28.649Z,78.04
2023-04-18T04:23:43.577Z,77.80
2023-04-18T04:26:52.482Z,78.21
2023-04-18T04:30:02.555Z,78.10
2023-04-18T04:33:06.880Z,78.62
2023-04-18T04:36:15.689Z,77.81
2023-04-18T04:39:22.183Z,78.40
2023-04-18T04:42:44.188Z,78.33
2023-04-18T04:45:57.711Z,78.29
2023-04-18T04:49:01.953Z,78.26
2023-04-18T04:52:05.525Z,78.31
2023-04-18T04:55:09.932Z,78.07
2023-04-18T04:58:13.496Z,77.80
2023-04-18T05:01:36.434Z,78.61
2023-04-18T05:04:40.385Z,78.10
2023-04-18T05:07:44.181Z,77.97
2023-04-18T05:10:47.714Z,78.31
2023-04-18T05:13:51.382Z,77.93
2023-04-18T05:16:56.768Z,78.00
2023-04-18T05:20:00.484Z,78.10
2023-04-18T05:23:04.215Z,78.00
2023-04-18T05:26:08.204Z,78.14
2023-04-18T05:29:11.776Z,77.97
2023-04-18T05:32:18.684Z,78.06
2023-04-18T05:35:22.307Z,77.71
2023-04-18T05:38:26.387Z,77.78
2023-04-18T05:41:30.131Z,77.62
2023-04-18T05:44:33.877Z,77.47
2023-04-18T05:47:38.871Z,77.43
2023-04-18T05:50:42.607Z,77.56
2023-04-18T05:53:46.455Z,77.46
2023-04-18T05:56:50.258Z,76.93
2023-04-18T05:59:53.856Z,77.33
2023-04-18T06:02:59.187Z,77.36
2023-04-18T06:06:02.893Z,76.42
2023-04-18T06:09:06.614Z,76.66
2023-04-18T06:12:10.253Z,76.84
2023-04-18T06:15:13.927Z,76.24
2023-04-18T06:18:19.014Z,75.84
2023-04-18T06:21:23.356Z,75.07
2023-04-18T06:24:27.964Z,75.81
2023-04-18T06:27:32.423Z,75.16
2023-04-18T06:30:36.586Z,74.17
2023-04-18T06:33:41.697Z,74.17
2023-04-18T06:36:45.302Z,73.76
2023-04-18T06:39:48.992Z,73.88
2023-04-18T06:42:52.320Z,73.96
2023-04-18T06:45:56.904Z,73.59
2023-04-18T06:49:02.193Z,73.21
2023-04-18T06:52:05.904Z,73.50
2023-04-18T06:55:10.339Z,73.70
2023-04-18T06:58:16.269Z,73.35
2023-04-18T07:01:19.952Z,72.98
2023-04-18T07:04:25.235Z,72.70
2023-04-18T07:07:29.255Z,72.97
2023-04-18T07:10:33.167Z,73.40
2023-04-18T07:13:36.560Z,72.23
2023-04-18T07:16:40.314Z,72.98
2023-04-18T07:19:45.502Z,71.84
2023-04-18T07:22:50.072Z,72.06
2023-04-18T07:25:53.625Z,71.44
2023-04-18T07:28:57.304Z,71.53
2023-04-18T07:32:00.814Z,70.96
2023-04-18T07:35:06.808Z,70.37
2023-04-18T07:38:11.682Z,70.26
2023-04-18T07:41:15.352Z,70.14
2023-04-18T07:44:21.440Z,70.11
2023-04-18T07:47:26.904Z,69.42
2023-04-18T07:50:33.160Z,69.49
2023-04-18T07:53:36.816Z,69.50
2023-04-18T07:56:40.198Z,69.15
2023-04-18T07:59:43.829Z,68.51
2023-04-18T08:02:47.546Z,68.40
2023-04-18T08:05:52.664Z,69.37
2023-04-18T08:08:57.512Z,68.78
2023-04-18T08:12:01.308Z,68.58
2023-04-18T08:15:05.748Z,68.94
2023-04-18T08:18:09.404Z,68.58
2023-04-18T08:21:14.381Z,67.78
2023-04-18T08:24:18.003Z,67.85
2023-04-18T08:27:21.630Z,67.70
2023-04-18T08:30:25.797Z,67.04
2023-04-18T08:33:30.132Z,67.18
2023-04-18T08:36:36.244Z,67.72
2023-04-18T08:39:39.840Z,67.24
2023-04-18T08:42:45.443Z,67.76
2023-04-18T08:45:49.139Z,67.01
2023-04-18T08:48:53.630Z,66.75
2023-04-18T08:52:01.739Z,66.55
2023-04-18T08:55:06.444Z,65.92
2023-04-18T08:58:12.574Z,66.02
2023-04-18T09:01:17.840Z,65.39
2023-04-18T09:04:37.341Z,65.48
2023-04-18T09:07:43.961Z,65.11
2023-04-18T09:10:47.508Z,65.17
2023-04-18T09:13:51.862Z,64.40
2023-04-18T09:16:56.385Z,65.27
2023-04-18T09:20:02.004Z,64.82
2023-04-18T09:23:11.044Z,64.35
2023-04-18T09:26:25.184Z,64.25
2023-04-18T09:29:46.679Z,62.90
2023-04-18T09:32:59.366Z,63.35
2023-04-18T09:36:18.942Z,63.80
2023-04-18T09:39:29.466Z,63.35
2023-04-18T09:42:38.314Z,63.10
2023-04-18T09:45:42.035Z,62.87
2023-04-18T09:48:45.759Z,62.73
2023-04-18T09:51:52.457Z,62.03
2023-04-18T09:55:00.355Z,62.08
2023-04-18T09:58:08.741Z,61.06
2023-04-18T10:01:13.546Z,60.66
2023-04-18T10:04:19.194Z,59.84
2023-04-18T10:07:26.727Z,60.05
2023-04-18T10:10:31.977Z,59.56
2023-04-18T10:13:40.616Z,59.55
2023-04-18T10:16:48.637Z,59.67
2023-04-18T10:20:08.220Z,57.86
2023-04-18T10:23:48.730Z,58.61
2023-04-18T10:26:53.919Z,57.79
2023-04-18T10:29:57.376Z,58.39
2023-04-18T10:33:31.137Z,57.79
2023-04-18T10:36:38.957Z,57.56
2023-04-18T10:39:58.605Z,57.65
2023-04-18T10:43:03.516Z,57.37
2023-04-18T10:46:24.256Z,57.03
2023-04-18T10:49:34.189Z,56.77
2023-04-18T10:52:38.172Z,56.05
2023-04-18T10:55:54.285Z,54.79
2023-04-18T10:59:04.618Z,54.79
2023-04-18T11:02:28.849Z,54.09
2023-04-18T11:05:33.143Z,54.02
2023-04-18T11:08:36.528Z,54.17
2023-04-18T11:11:41.469Z,53.91
2023-04-18T11:14:49.513Z,53.19
2023-04-18T11:18:02.112Z,53.96
2023-04-18T11:21:06.278Z,53.51
2023-04-18T11:24:10.247Z,53.17
2023-04-18T11:27:14.090Z,52.75
2023-04-18T11:30:20.116Z,52.63
2023-04-18T11:33:24.793Z,52.64
2023-04-18T11:36:28.795Z,52.69
2023-04-18T11:39:36.548Z,51.46
2023-04-18T11:42:42.557Z,51.94
2023-04-18T11:45:57.481Z,52.45
2023-04-18T11:49:01.255Z,51.68
2023-04-18T11:52:12.800Z,51.39
2023-04-18T11:55:21.419Z,52.10
2023-04-18T11:58:32.979Z,48.90
2023-04-18T12:01:38.192Z,50.69
2023-04-18T12:04:56.096Z,48.60
2023-04-18T12:08:08.386Z,49.79
2023-04-18T12:11:20.802Z,49.66
2023-04-18T12:14:24.814Z,49.16
2023-04-18T12:17:30.144Z,48.85
2023-04-18T12:20:39.133Z,47.96
2023-04-18T12:23:42.873Z,46.41
2023-04-18T12:26:47.126Z,47.38
2023-04-18T12:29:50.564Z,46.86
2023-04-18T12:32:58.057Z,46.14
2023-04-18T12:36:01.442Z,46.45
2023-04-18T12:39:05.830Z,47.08
2023-04-18T12:42:09.189Z,47.58
2023-04-18T12:45:14.572Z,46.57
2023-04-18T12:48:19.575Z,42.39
2023-04-18T12:51:23.338Z,38.64
2023-04-18T12:54:26.690Z,35.97
2023-04-18T12:57:31.884Z,34.70
2023-04-18T13:00:35.737Z,33.50
2023-04-18T13:03:42.136Z,33.02
2023-04-18T13:06:45.731Z,34.19
2023-04-18T13:09:50.152Z,30.81
2023-04-18T13:12:54.398Z,32.30
2023-04-18T13:15:58.083Z,32.37
2023-04-18T13:19:02.928Z,31.28
2023-04-18T13:22:06.867Z,32.43
2023-04-18T13:25:12.107Z,34.64
2023-04-18T13:28:15.892Z,33.87
2023-04-18T13:31:19.422Z,33.44
2023-04-18T13:34:24.933Z,32.48
2023-04-18T13:37:28.333Z,30.50
2023-04-18T13:40:33.615Z,30.34
2023-04-18T13:43:37.072Z,28.77
2023-04-18T13:46:41.449Z,29.99
2023-04-18T13:49:46.250Z,29.70
2023-04-18T13:52:52.029Z,28.01
2023-04-18T13:55:55.808Z,29.00
2023-04-18T13:58:59.806Z,30.20
2023-04-18T14:02:03.360Z,31.07
2023-04-18T14:05:10.113Z,33.12
2023-04-18T14:08:14.229Z,35.08
2023-04-18T14:11:18.389Z,36.88
2023-04-18T14:14:21.820Z,39.11
2023-04-18T14:17:25.866Z,40.78
2023-04-18T14:20:34.368Z,42.28
2023-04-18T14:23:38.335Z,43.48
2023-04-18T14:26:41.841Z,44.09
2023-04-18T14:29:45.666Z,44.81
2023-04-18T14:32:49.029Z,44.90
2023-04-18T14:35:54.326Z,45.51
2023-04-18T14:38:57.772Z,45.92
2023-04-18T14:42:01.864Z,46.47
2023-04-18T14:45:06.395Z,47.04
2023-04-18T14:48:10.592Z,47.94
2023-04-18T14:51:16.837Z,48.02
2023-04-18T14:54:20.868Z,48.32
2023-04-18T14:57:25.002Z,48.33
2023-04-18T15:00:29.492Z,49.54
2023-04-18T15:03:33.972Z,49.36
2023-04-18T15:06:39.234Z,49.72
2023-04-18T15:09:42.620Z,49.66
2023-04-18T15:12:47.670Z,49.13
2023-04-18T15:15:55.372Z,47.45
2023-04-18T15:19:00.475Z,45.11
2023-04-18T15:22:05.347Z,44.97
2023-04-18T15:25:10.013Z,45.74
2023-04-18T15:28:14.322Z,46.66
2023-04-18T15:31:18.335Z,47.73
2023-04-18T15:34:21.841Z,47.88
2023-04-18T15:37:27.592Z,49.17
2023-04-18T15:40:32.935Z,49.70
2023-04-18T15:43:36.960Z,50.15
2023-04-18T15:46:40.993Z,50.59
2023-04-18T15:49:45.157Z,51.14
2023-04-18T15:52:49.930Z,51.50
2023-04-18T15:55:54.090Z,51.97
2023-04-18T15:58:58.723Z,52.79
2023-04-18T16:02:03.014Z,52.59
2023-04-18T16:05:08.487Z,53.23
2023-04-18T16:08:14.274Z,53.89
2023-04-18T16:11:19.704Z,54.45
2023-04-18T16:14:23.604Z,55.11
2023-04-18T16:17:27.028Z,55.13
2023-04-18T16:20:33.344Z,56.02
2023-04-18T16:23:38.506Z,55.87
2023-04-18T16:26:42.369Z,56.00
2023-04-18T16:29:46.101Z,55.71
2023-04-18T16:32:49.937Z,55.89
2023-04-18T16:35:57.766Z,56.26
2023-04-18T16:39:04.637Z,55.96
2023-04-18T16:42:08.038Z,56.78
2023-04-18T16:45:11.938Z,56.60
2023-04-18T16:48:15.403Z,56.75
2023-04-18T16:51:19.368Z,57.11
2023-04-18T16:54:24.209Z,57.29
2023-04-18T16:57:28.131Z,57.62
2023-04-18T17:00:31.639Z,57.31
2023-04-18T17:03:36.578Z,57.22
2023-04-18T17:06:42.141Z,56.93
2023-04-18T17:09:48.014Z,57.83
2023-04-18T17:12:51.506Z,57.58
2023-04-18T17:15:55.351Z,57.88
2023-04-18T17:18:58.871Z,57.78
2023-04-18T17:22:03.667Z,58.03
2023-04-18T17:25:09.740Z,58.55
2023-04-18T17:28:14.020Z,58.26
2023-04-18T17:31:17.551Z,58.94
2023-04-18T17:34:21.436Z,58.58
2023-04-18T17:37:25.084Z,58.69
2023-04-18T17:40:30.324Z,59.61
2023-04-18T17:43:33.798Z,58.75
2023-04-18T17:46:37.785Z,58.89
2023-04-18T17:49:41.294Z,59.44
2023-04-18T17:52:46.395Z,59.99
2023-04-18T17:55:52.334Z,59.82
2023-04-18T17:58:56.774Z,59.99
2023-04-18T18:02:00.356Z,60.08
2023-04-18T18:05:05.268Z,59.47
2023-04-18T18:08:09.133Z,59.73
2023-04-18T18:11:14.320Z,59.96
2023-04-18T18:14:17.819Z,59.90
2023-04-18T18:17:22.077Z,60.14
2023-04-18T18:20:27.346Z,60.66
2023-04-18T18:23:31.702Z,60.10
2023-04-18T18:26:37.553Z,60.49
2023-04-18T18:29:41.594Z,60.08
2023-04-18T18:32:45.051Z,60.99
2023-04-18T18:35:48.931Z,60.95
2023-04-18T18:38:52.360Z,60.87
2023-04-18T18:41:58.546Z,60.84
2023-04-18T18:45:01.975Z,61.05
2023-04-18T18:48:07.673Z,60.87
2023-04-18T18:51:11.600Z,61.46
2023-04-18T18:54:15.955Z,61.51
2023-04-18T18:57:20.786Z,61.68
2023-04-18T19:00:24.972Z,61.45
2023-04-18T19:03:28.497Z,62.00
2023-04-18T19:06:32.615Z,61.61
2023-04-18T19:09:36.951Z,61.93
2023-04-18T19:12:42.110Z,62.34
2023-04-18T19:15:45.532Z,62.05
2023-04-18T19:18:50.792Z,61.53
2023-04-18T19:21:54.261Z,62.73
2023-04-18T19:25:00.598Z,62.39
2023-04-18T19:28:06.035Z,62.50
2023-04-18T19:31:10.530Z,62.88
2023-04-18T19:34:14.036Z,62.59
2023-04-18T19:37:18.032Z,63.08
2023-04-18T19:40:23.628Z,62.70
2023-04-18T19:43:29.125Z,62.86
2023-04-18T19:46:32.574Z,63.00
2023-04-18T19:49:36.598Z,63.61
2023-04-18T19:52:40.176Z,63.00
2023-04-18T19:55:46.161Z,63.89
2023-04-18T19:58:51.080Z,63.68
2023-04-18T20:01:55.172Z,63.56
2023-04-18T20:04:58.711Z,63.13
2023-04-18T20:08:03.300Z,63.64
2023-04-18T20:11:10.058Z,64.39
2023-04-18T20:14:15.318Z,63.61
2023-04-18T20:17:19.127Z,63.80
2023-04-18T20:20:23.630Z,64.37
2023-04-18T20:23:27.106Z,63.88
2023-04-18T20:26:31.300Z,64.01
2023-04-18T20:29:36.623Z,64.44
2023-04-18T20:32:40.455Z,64.73
2023-04-18T20:35:46.716Z,65.03
2023-04-18T20:38:50.572Z,64.67
2023-04-18T20:41:57.584Z,64.54
2023-04-18T20:45:03.108Z,65.17
2023-04-18T20:48:07.484Z,64.54
2023-04-18T20:51:11.248Z,65.24
2023-04-18T20:54:15.095Z,65.15
2023-04-18T20:57:20.403Z,65.57
2023-04-18T21:00:25.878Z,65.81
2023-04-18T21:03:29.767Z,65.91
2023-04-18T21:06:33.356Z,66.10
2023-04-18T21:09:37.673Z,66.11
2023-04-18T21:12:41.409Z,65.68
2023-04-18T21:15:46.796Z,65.85
2023-04-18T21:18:50.317Z,65.87
2023-04-18T21:21:54.085Z,65.79
2023-04-18T21:24:57.869Z,65.93
2023-04-18T21:28:01.853Z,65.79
2023-04-18T21:31:06.910Z,66.76
2023-04-18T21:34:11.407Z,65.56
2023-04-18T21:37:14.943Z,66.60
2023-04-18T21:40:18.815Z,66.35
2023-04-18T21:43:22.233Z,65.96
2023-04-18T21:46:27.542Z,66.60
2023-04-18T21:49:30.998Z,66.14
2023-04-18T21:52:34.952Z,66.53
2023-04-18T21:55:38.431Z,66.80
2023-04-18T21:58:42.295Z,67.05
2023-04-18T22:01:47.205Z,66.77
2023-04-18T22:04:50.868Z,66.69
2023-04-18T22:07:58.414Z,66.84
2023-04-18T22:11:02.955Z,66.42
2023-04-18T22:14:06.583Z,67.01
2023-04-18T22:17:11.628Z,67.70
2023-04-18T22:20:15.182Z,66.39
2023-04-18T22:23:18.800Z,66.75
2023-04-18T22:26:22.342Z,67.10
2023-04-18T22:29:26.028Z,67.64
2023-04-18T22:32:30.938Z,67.17
2023-04-18T22:35:34.665Z,67.27
2023-04-18T22:38:38.262Z,67.42
2023-04-18T22:41:42.049Z,67.26
2023-04-18T22:44:45.458Z,67.18
2023-04-18T22:47:50.828Z,67.50
2023-04-18T22:50:54.256Z,66.97
2023-04-18T22:53:58.234Z,67.38
2023-04-18T22:57:02.124Z,66.96
2023-04-18T23:00:07.595Z,67.11
2023-04-18T23:03:12.556Z,67.85
2023-04-18T23:06:17.523Z,67.16
2023-04-18T23:09:21.114Z,67.44
2023-04-18T23:12:25.414Z,67.47
2023-04-18T23:15:28.956Z,67.64
2023-04-18T23:18:34.071Z,68.13
2023-04-18T23:21:37.522Z,67.43
2023-04-18T23:24:41.536Z,67.79
2023-04-18T23:27:44.971Z,67.26
2023-04-18T23:30:50.169Z,67.39
2023-04-18T23:33:56.347Z,67.93
2023-04-18T23:37:00.241Z,67.81
2023-04-18T23:40:06.711Z,68.03
2023-04-18T23:43:10.592Z,67.84
2023-04-18T23:46:14.130Z,67.94
2023-04-18T23:49:19.602Z,67.59
2023-04-18T23:52:23.448Z,67.67
2023-04-18T23:55:27.275Z,67.73
2023-04-18T23:58:31.713Z,67.54
